Saint Martin, MN (56376)

2:20 PM CST on December 09, 2016 (GMT -0600)
Paynesville | | Change Station

Elev 1181 ft 45.37 °N, 94.74 °W | Updated 7 minutes ago

Mostly Cloudy
Mostly Cloudy
11 °F
Feels Like 0 °F
N
7
Wind Variable Wind from West

Today
High -- | Low -- °F
--% Chance of Precip.
Yesterday
High -- | Low -- °F
Precip. -- in
Pressure 30.50 in
Visibility 10.0 miles
Clouds Scattered Clouds 2100 ft
Windchill 0 °F
Dew Point 4 °F
Humidity 73%
Rainfall 0.00 in
Snow Depth Not available.
7:47 AM 4:35 PM
Waxing Gibbous, 77% visible
METAR KPEX 092013Z AUTO 27006KT 10SM SCT021 M12/M16 A3050 RMK AO2 T11191158
Pressure 30.50 in
Visibility 10.0 miles
Clouds Scattered Clouds 2100 ft
Windchill 0 °F
Dew Point 4 °F
Humidity 73%
Rainfall 0.00 in
Snow Depth Not available.
7:47 AM 4:35 PM
Waxing Gibbous, 77% visible
METAR KPEX 092013Z AUTO 27006KT 10SM SCT021 M12/M16 A3050 RMK AO2 T11191158

10-Day Weather Forecast

Almanac

Astronomy

Dec. 09, 2016 Rise Set
Actual Time
Civil Twilight
Nautical Twilight
Astronomical Twilight
Moon
Length of Visible Light
Length of Day
Tomorrow will be .
, % of the Moon is Illuminated

Today's Extremes

State Highs State Lows

Community

WunderPhotos

Upload Photos

1,956,517 photos uploaded!

WunderBlog® & News

Nearby

Air Quality

  Air Quality AQ Index Pollutant
Not available.

Snow Depth

Station Depth Elevation

Earthquake Activity

City Distance Mag. Time & Date
Minimum magnitude displayed is 2.5.

Coastal Water Temperatures

Place Temperature

Stations

Nearby Weather Stations

Station Location Temp. Windchill Dew Point Humidity Wind Precip. Elev Updated Type
                   

Watches & Warnings

There are currently no watches in effect.